sensor_id;sensor_type;location;lat;lon;timestamp;P1;durP1;ratioP1;P2;durP2;ratioP2
7195;SDS011;3639;51.308;5.624;2022-07-06T00:02:20;5.03;;;1.97;;
7195;SDS011;3639;51.308;5.624;2022-07-06T00:04:45;4.40;;;1.63;;
7195;SDS011;3639;51.308;5.624;2022-07-06T00:07:11;2.50;;;1.67;;
7195;SDS011;3639;51.308;5.624;2022-07-06T00:09:39;1.83;;;1.73;;
7195;SDS011;3639;51.308;5.624;2022-07-06T00:12:05;1.93;;;1.67;;
7195;SDS011;3639;51.308;5.624;2022-07-06T00:14:31;2.87;;;2.00;;
7195;SDS011;3639;51.308;5.624;2022-07-06T00:16:56;2.37;;;1.93;;
7195;SDS011;3639;51.308;5.624;2022-07-06T00:19:22;1.83;;;1.73;;
7195;SDS011;3639;51.308;5.624;2022-07-06T00:21:48;2.10;;;2.00;;
7195;SDS011;3639;51.308;5.624;2022-07-06T00:24:13;4.10;;;1.87;;
7195;SDS011;3639;51.308;5.624;2022-07-06T00:26:39;2.57;;;2.37;;
7195;SDS011;3639;51.308;5.624;2022-07-06T00:29:05;2.53;;;1.70;;
7195;SDS011;3639;51.308;5.624;2022-07-06T00:31:30;2.60;;;2.07;;
7195;SDS011;3639;51.308;5.624;2022-07-06T00:33:56;2.07;;;1.87;;
7195;SDS011;3639;51.308;5.624;2022-07-06T00:36:21;1.83;;;1.73;;
7195;SDS011;3639;51.308;5.624;2022-07-06T00:38:47;1.77;;;1.50;;
7195;SDS011;3639;51.308;5.624;2022-07-06T00:41:13;2.93;;;2.17;;
7195;SDS011;3639;51.308;5.624;2022-07-06T00:43:52;2.40;;;2.20;;
7195;SDS011;3639;51.308;5.624;2022-07-06T00:46:22;2.50;;;2.30;;
7195;SDS011;3639;51.308;5.624;2022-07-06T00:48:50;2.47;;;2.27;;
7195;SDS011;3639;51.308;5.624;2022-07-06T00:51:15;3.30;;;2.30;;
7195;SDS011;3639;51.308;5.624;2022-07-06T00:53:42;2.50;;;2.10;;
7195;SDS011;3639;51.308;5.624;2022-07-06T00:56:08;2.90;;;2.37;;
7195;SDS011;3639;51.308;5.624;2022-07-06T00:58:35;1.93;;;1.83;;
7195;SDS011;3639;51.308;5.624;2022-07-06T01:01:01;2.57;;;2.13;;
7195;SDS011;3639;51.308;5.624;2022-07-06T01:03:27;2.27;;;1.80;;
7195;SDS011;3639;51.308;5.624;2022-07-06T01:05:52;1.93;;;1.83;;
7195;SDS011;3639;51.308;5.624;2022-07-06T01:08:18;3.20;;;2.60;;
7195;SDS011;3639;51.308;5.624;2022-07-06T01:10:44;4.30;;;3.10;;
7195;SDS011;3639;51.308;5.624;2022-07-06T01:13:09;3.80;;;2.60;;
7195;SDS011;3639;51.308;5.624;2022-07-06T01:15:35;2.80;;;2.23;;
7195;SDS011;3639;51.308;5.624;2022-07-06T01:18:01;3.70;;;2.63;;
7195;SDS011;3639;51.308;5.624;2022-07-06T01:20:28;4.13;;;2.53;;
7195;SDS011;3639;51.308;5.624;2022-07-06T01:22:54;2.30;;;2.10;;
7195;SDS011;3639;51.308;5.624;2022-07-06T01:25:21;3.63;;;2.40;;
7195;SDS011;3639;51.308;5.624;2022-07-06T01:27:47;2.63;;;2.43;;
7195;SDS011;3639;51.308;5.624;2022-07-06T01:30:14;2.77;;;2.53;;
7195;SDS011;3639;51.308;5.624;2022-07-06T01:32:42;3.97;;;2.67;;
7195;SDS011;3639;51.308;5.624;2022-07-06T01:35:09;3.50;;;2.70;;
7195;SDS011;3639;51.308;5.624;2022-07-06T01:37:36;3.30;;;3.00;;
7195;SDS011;3639;51.308;5.624;2022-07-06T01:40:03;3.07;;;2.70;;
7195;SDS011;3639;51.308;5.624;2022-07-06T01:42:30;4.80;;;2.80;;
7195;SDS011;3639;51.308;5.624;2022-07-06T01:44:55;3.27;;;2.93;;
7195;SDS011;3639;51.308;5.624;2022-07-06T01:47:21;3.17;;;2.87;;
7195;SDS011;3639;51.308;5.624;2022-07-06T01:49:47;4.30;;;3.20;;
7195;SDS011;3639;51.308;5.624;2022-07-06T01:52:14;4.27;;;3.03;;
7195;SDS011;3639;51.308;5.624;2022-07-06T01:54:39;2.77;;;2.57;;
7195;SDS011;3639;51.308;5.624;2022-07-06T01:57:05;3.80;;;3.27;;
7195;SDS011;3639;51.308;5.624;2022-07-06T01:59:31;3.17;;;2.77;;
7195;SDS011;3639;51.308;5.624;2022-07-06T02:01:56;5.63;;;2.70;;
7195;SDS011;3639;51.308;5.624;2022-07-06T02:04:22;2.77;;;2.43;;
7195;SDS011;3639;51.308;5.624;2022-07-06T02:06:48;3.13;;;2.70;;
7195;SDS011;3639;51.308;5.624;2022-07-06T02:09:13;3.53;;;2.87;;
7195;SDS011;3639;51.308;5.624;2022-07-06T02:11:40;3.03;;;2.53;;
7195;SDS011;3639;51.308;5.624;2022-07-06T02:14:06;6.53;;;3.50;;
7195;SDS011;3639;51.308;5.624;2022-07-06T02:16:32;3.33;;;3.00;;
7195;SDS011;3639;51.308;5.624;2022-07-06T02:18:57;3.37;;;2.97;;
7195;SDS011;3639;51.308;5.624;2022-07-06T02:21:23;3.27;;;2.90;;
7195;SDS011;3639;51.308;5.624;2022-07-06T02:23:49;4.00;;;2.63;;
7195;SDS011;3639;51.308;5.624;2022-07-06T02:26:14;4.93;;;3.10;;
7195;SDS011;3639;51.308;5.624;2022-07-06T02:28:40;3.40;;;3.10;;
7195;SDS011;3639;51.308;5.624;2022-07-06T02:31:05;4.33;;;3.37;;
7195;SDS011;3639;51.308;5.624;2022-07-06T02:33:31;4.50;;;2.93;;
7195;SDS011;3639;51.308;5.624;2022-07-06T02:35:57;3.83;;;3.37;;
7195;SDS011;3639;51.308;5.624;2022-07-06T02:38:22;3.30;;;3.00;;
7195;SDS011;3639;51.308;5.624;2022-07-06T02:40:48;4.37;;;2.97;;
7195;SDS011;3639;51.308;5.624;2022-07-06T02:43:14;5.87;;;3.80;;
7195;SDS011;3639;51.308;5.624;2022-07-06T02:45:39;3.60;;;3.30;;
7195;SDS011;3639;51.308;5.624;2022-07-06T02:48:05;3.20;;;2.90;;
7195;SDS011;3639;51.308;5.624;2022-07-06T02:50:30;3.47;;;2.77;;
7195;SDS011;3639;51.308;5.624;2022-07-06T02:52:56;7.67;;;3.97;;
7195;SDS011;3639;51.308;5.624;2022-07-06T02:55:23;4.43;;;3.20;;
7195;SDS011;3639;51.308;5.624;2022-07-06T02:57:49;4.07;;;3.43;;
7195;SDS011;3639;51.308;5.624;2022-07-06T03:00:15;3.20;;;2.97;;
7195;SDS011;3639;51.308;5.624;2022-07-06T03:02:41;4.20;;;3.40;;
7195;SDS011;3639;51.308;5.624;2022-07-06T03:05:07;3.67;;;3.17;;
7195;SDS011;3639;51.308;5.624;2022-07-06T03:07:33;7.53;;;3.87;;
7195;SDS011;3639;51.308;5.624;2022-07-06T03:09:58;4.40;;;3.03;;
7195;SDS011;3639;51.308;5.624;2022-07-06T03:12:24;4.87;;;3.73;;
7195;SDS011;3639;51.308;5.624;2022-07-06T03:14:50;3.83;;;3.10;;
7195;SDS011;3639;51.308;5.624;2022-07-06T03:17:15;5.00;;;3.33;;
7195;SDS011;3639;51.308;5.624;2022-07-06T03:19:41;3.93;;;3.10;;
7195;SDS011;3639;51.308;5.624;2022-07-06T03:22:07;3.60;;;2.97;;
7195;SDS011;3639;51.308;5.624;2022-07-06T03:24:32;3.53;;;3.10;;
7195;SDS011;3639;51.308;5.624;2022-07-06T03:26:58;5.50;;;3.20;;
7195;SDS011;3639;51.308;5.624;2022-07-06T03:29:24;5.17;;;2.97;;
7195;SDS011;3639;51.308;5.624;2022-07-06T03:31:49;3.73;;;3.43;;
7195;SDS011;3639;51.308;5.624;2022-07-06T03:34:15;3.93;;;3.47;;
7195;SDS011;3639;51.308;5.624;2022-07-06T03:36:40;4.23;;;3.40;;
7195;SDS011;3639;51.308;5.624;2022-07-06T03:39:06;5.07;;;3.77;;
7195;SDS011;3639;51.308;5.624;2022-07-06T03:41:32;4.40;;;3.70;;
7195;SDS011;3639;51.308;5.624;2022-07-06T03:43:58;4.90;;;3.90;;
7195;SDS011;3639;51.308;5.624;2022-07-06T03:46:24;3.33;;;3.03;;
7195;SDS011;3639;51.308;5.624;2022-07-06T03:48:50;6.30;;;3.87;;
7195;SDS011;3639;51.308;5.624;2022-07-06T03:51:15;3.67;;;3.00;;
7195;SDS011;3639;51.308;5.624;2022-07-06T03:53:41;4.47;;;3.43;;
7195;SDS011;3639;51.308;5.624;2022-07-06T03:56:07;6.57;;;3.40;;
7195;SDS011;3639;51.308;5.624;2022-07-06T03:58:51;3.73;;;3.33;;
7195;SDS011;3639;51.308;5.624;2022-07-06T04:01:16;4.00;;;3.37;;
7195;SDS011;3639;51.308;5.624;2022-07-06T04:03:42;4.70;;;3.53;;
7195;SDS011;3639;51.308;5.624;2022-07-06T04:06:09;6.37;;;3.30;;
7195;SDS011;3639;51.308;5.624;2022-07-06T04:08:35;3.53;;;2.83;;
7195;SDS011;3639;51.308;5.624;2022-07-06T04:11:00;4.63;;;4.07;;
7195;SDS011;3639;51.308;5.624;2022-07-06T04:13:26;4.33;;;3.50;;
7195;SDS011;3639;51.308;5.624;2022-07-06T04:15:52;4.17;;;3.53;;
7195;SDS011;3639;51.308;5.624;2022-07-06T04:18:17;4.77;;;3.47;;
7195;SDS011;3639;51.308;5.624;2022-07-06T04:20:43;3.50;;;3.20;;
7195;SDS011;3639;51.308;5.624;2022-07-06T04:23:09;4.20;;;3.10;;
7195;SDS011;3639;51.308;5.624;2022-07-06T04:25:34;2.93;;;2.60;;
7195;SDS011;3639;51.308;5.624;2022-07-06T04:28:00;5.00;;;3.40;;
7195;SDS011;3639;51.308;5.624;2022-07-06T04:30:26;3.70;;;3.23;;
7195;SDS011;3639;51.308;5.624;2022-07-06T04:32:52;3.37;;;2.90;;
7195;SDS011;3639;51.308;5.624;2022-07-06T04:35:17;3.33;;;2.73;;
7195;SDS011;3639;51.308;5.624;2022-07-06T04:37:43;3.57;;;3.00;;
7195;SDS011;3639;51.308;5.624;2022-07-06T04:40:11;5.47;;;3.77;;
7195;SDS011;3639;51.308;5.624;2022-07-06T04:42:37;3.53;;;3.10;;
7195;SDS011;3639;51.308;5.624;2022-07-06T04:45:03;3.57;;;2.83;;
7195;SDS011;3639;51.308;5.624;2022-07-06T04:47:29;4.27;;;3.37;;
7195;SDS011;3639;51.308;5.624;2022-07-06T04:49:55;3.27;;;2.90;;
7195;SDS011;3639;51.308;5.624;2022-07-06T04:52:21;3.93;;;3.20;;
7195;SDS011;3639;51.308;5.624;2022-07-06T04:54:46;4.30;;;3.03;;
7195;SDS011;3639;51.308;5.624;2022-07-06T04:57:12;3.70;;;3.23;;
7195;SDS011;3639;51.308;5.624;2022-07-06T04:59:38;3.67;;;3.27;;
7195;SDS011;3639;51.308;5.624;2022-07-06T05:02:03;4.40;;;2.93;;
7195;SDS011;3639;51.308;5.624;2022-07-06T05:04:29;3.27;;;2.97;;
7195;SDS011;3639;51.308;5.624;2022-07-06T05:06:55;3.87;;;3.40;;
7195;SDS011;3639;51.308;5.624;2022-07-06T05:09:20;3.67;;;3.27;;
7195;SDS011;3639;51.308;5.624;2022-07-06T05:11:46;5.73;;;2.93;;
7195;SDS011;3639;51.308;5.624;2022-07-06T05:14:12;3.40;;;2.90;;
7195;SDS011;3639;51.308;5.624;2022-07-06T05:16:37;3.77;;;2.87;;
7195;SDS011;3639;51.308;5.624;2022-07-06T05:19:03;3.07;;;2.73;;
7195;SDS011;3639;51.308;5.624;2022-07-06T05:21:28;3.77;;;2.97;;
7195;SDS011;3639;51.308;5.624;2022-07-06T05:23:54;4.13;;;3.23;;
7195;SDS011;3639;51.308;5.624;2022-07-06T05:26:20;3.43;;;2.87;;
7195;SDS011;3639;51.308;5.624;2022-07-06T05:28:46;3.23;;;2.87;;
7195;SDS011;3639;51.308;5.624;2022-07-06T05:31:11;2.97;;;2.67;;
7195;SDS011;3639;51.308;5.624;2022-07-06T05:33:37;2.87;;;2.30;;
7195;SDS011;3639;51.308;5.624;2022-07-06T05:36:03;3.97;;;2.77;;
7195;SDS011;3639;51.308;5.624;2022-07-06T05:38:29;2.90;;;2.60;;
7195;SDS011;3639;51.308;5.624;2022-07-06T05:40:54;3.67;;;2.37;;
7195;SDS011;3639;51.308;5.624;2022-07-06T05:43:20;2.67;;;2.27;;
7195;SDS011;3639;51.308;5.624;2022-07-06T05:45:45;2.93;;;2.53;;
7195;SDS011;3639;51.308;5.624;2022-07-06T05:48:11;3.10;;;2.70;;
7195;SDS011;3639;51.308;5.624;2022-07-06T05:50:55;4.27;;;2.33;;
7195;SDS011;3639;51.308;5.624;2022-07-06T05:53:21;2.70;;;2.20;;
7195;SDS011;3639;51.308;5.624;2022-07-06T05:55:47;2.27;;;1.97;;
7195;SDS011;3639;51.308;5.624;2022-07-06T05:58:12;2.57;;;1.90;;
7195;SDS011;3639;51.308;5.624;2022-07-06T06:00:38;2.20;;;2.00;;
7195;SDS011;3639;51.308;5.624;2022-07-06T06:03:04;2.63;;;2.00;;
7195;SDS011;3639;51.308;5.624;2022-07-06T06:05:29;2.30;;;2.07;;
7195;SDS011;3639;51.308;5.624;2022-07-06T06:07:58;2.13;;;1.93;;
7195;SDS011;3639;51.308;5.624;2022-07-06T06:10:31;2.20;;;2.00;;
7195;SDS011;3639;51.308;5.624;2022-07-06T06:12:57;2.57;;;2.00;;
7195;SDS011;3639;51.308;5.624;2022-07-06T06:15:24;7.40;;;2.03;;
7195;SDS011;3639;51.308;5.624;2022-07-06T06:17:50;2.70;;;2.00;;
7195;SDS011;3639;51.308;5.624;2022-07-06T06:20:17;2.43;;;1.80;;
7195;SDS011;3639;51.308;5.624;2022-07-06T06:22:55;2.43;;;2.00;;
7195;SDS011;3639;51.308;5.624;2022-07-06T06:25:32;1.67;;;1.57;;
7195;SDS011;3639;51.308;5.624;2022-07-06T06:28:04;1.43;;;1.33;;
7195;SDS011;3639;51.308;5.624;2022-07-06T06:30:34;3.50;;;1.80;;
7195;SDS011;3639;51.308;5.624;2022-07-06T06:33:27;1.80;;;1.27;;
7195;SDS011;3639;51.308;5.624;2022-07-06T06:35:54;1.50;;;1.20;;
7195;SDS011;3639;51.308;5.624;2022-07-06T06:38:22;0.97;;;0.97;;
7195;SDS011;3639;51.308;5.624;2022-07-06T06:40:54;2.60;;;1.20;;
7195;SDS011;3639;51.308;5.624;2022-07-06T06:43:30;1.00;;;0.90;;
7195;SDS011;3639;51.308;5.624;2022-07-06T06:45:58;1.00;;;0.90;;
7195;SDS011;3639;51.308;5.624;2022-07-06T06:48:27;1.00;;;0.90;;
7195;SDS011;3639;51.308;5.624;2022-07-06T06:51:00;1.50;;;0.90;;
7195;SDS011;3639;51.308;5.624;2022-07-06T06:53:31;1.73;;;1.03;;
7195;SDS011;3639;51.308;5.624;2022-07-06T06:56:09;1.10;;;0.80;;
7195;SDS011;3639;51.308;5.624;2022-07-06T06:58:47;0.90;;;0.80;;
7195;SDS011;3639;51.308;5.624;2022-07-06T07:01:13;1.53;;;1.17;;
7195;SDS011;3639;51.308;5.624;2022-07-06T07:03:41;1.60;;;1.00;;
7195;SDS011;3639;51.308;5.624;2022-07-06T07:06:10;0.80;;;0.80;;
7195;SDS011;3639;51.308;5.624;2022-07-06T07:08:51;2.30;;;0.80;;
7195;SDS011;3639;51.308;5.624;2022-07-06T07:11:21;0.70;;;0.70;;
7195;SDS011;3639;51.308;5.624;2022-07-06T07:13:48;1.03;;;0.90;;
7195;SDS011;3639;51.308;5.624;2022-07-06T07:16:34;0.90;;;0.77;;
7195;SDS011;3639;51.308;5.624;2022-07-06T07:19:06;2.00;;;0.97;;
7195;SDS011;3639;51.308;5.624;2022-07-06T07:21:36;0.93;;;0.90;;
7195;SDS011;3639;51.308;5.624;2022-07-06T07:24:04;0.97;;;0.80;;
7195;SDS011;3639;51.308;5.624;2022-07-06T07:26:30;0.77;;;0.77;;
7195;SDS011;3639;51.308;5.624;2022-07-06T07:29:08;1.43;;;0.93;;
7195;SDS011;3639;51.308;5.624;2022-07-06T07:31:49;1.53;;;0.80;;
7195;SDS011;3639;51.308;5.624;2022-07-06T07:34:14;0.60;;;0.60;;
7195;SDS011;3639;51.308;5.624;2022-07-06T07:36:41;1.00;;;0.90;;
7195;SDS011;3639;51.308;5.624;2022-07-06T07:39:07;0.73;;;0.70;;
7195;SDS011;3639;51.308;5.624;2022-07-06T07:41:32;0.90;;;0.90;;
7195;SDS011;3639;51.308;5.624;2022-07-06T07:43:58;0.80;;;0.70;;
7195;SDS011;3639;51.308;5.624;2022-07-06T07:46:25;1.03;;;0.87;;
7195;SDS011;3639;51.308;5.624;2022-07-06T07:48:52;0.80;;;0.70;;
7195;SDS011;3639;51.308;5.624;2022-07-06T07:51:34;0.87;;;0.87;;
7195;SDS011;3639;51.308;5.624;2022-07-06T07:54:00;1.20;;;0.93;;
7195;SDS011;3639;51.308;5.624;2022-07-06T07:56:26;0.63;;;0.63;;
7195;SDS011;3639;51.308;5.624;2022-07-06T07:58:53;1.10;;;1.00;;
7195;SDS011;3639;51.308;5.624;2022-07-06T08:01:20;0.70;;;0.70;;
7195;SDS011;3639;51.308;5.624;2022-07-06T08:03:49;0.70;;;0.70;;
7195;SDS011;3639;51.308;5.624;2022-07-06T08:06:16;1.00;;;0.77;;
7195;SDS011;3639;51.308;5.624;2022-07-06T08:08:42;1.20;;;0.90;;
7195;SDS011;3639;51.308;5.624;2022-07-06T08:11:08;1.40;;;1.00;;
7195;SDS011;3639;51.308;5.624;2022-07-06T08:13:34;1.47;;;0.83;;
7195;SDS011;3639;51.308;5.624;2022-07-06T08:16:01;0.70;;;0.70;;
7195;SDS011;3639;51.308;5.624;2022-07-06T08:18:27;1.07;;;0.97;;
7195;SDS011;3639;51.308;5.624;2022-07-06T08:20:52;0.80;;;0.80;;
7195;SDS011;3639;51.308;5.624;2022-07-06T08:23:21;2.27;;;0.93;;
7195;SDS011;3639;51.308;5.624;2022-07-06T08:25:47;1.00;;;0.80;;
7195;SDS011;3639;51.308;5.624;2022-07-06T08:28:13;1.10;;;0.80;;
7195;SDS011;3639;51.308;5.624;2022-07-06T08:30:38;1.37;;;0.90;;
7195;SDS011;3639;51.308;5.624;2022-07-06T08:33:04;1.00;;;0.90;;
7195;SDS011;3639;51.308;5.624;2022-07-06T08:35:30;3.23;;;0.87;;
7195;SDS011;3639;51.308;5.624;2022-07-06T08:37:56;1.10;;;1.00;;
7195;SDS011;3639;51.308;5.624;2022-07-06T08:40:21;1.13;;;0.70;;
7195;SDS011;3639;51.308;5.624;2022-07-06T08:42:48;0.80;;;0.80;;
7195;SDS011;3639;51.308;5.624;2022-07-06T08:45:21;2.03;;;0.70;;
7195;SDS011;3639;51.308;5.624;2022-07-06T08:47:48;1.10;;;0.80;;
7195;SDS011;3639;51.308;5.624;2022-07-06T08:50:15;0.67;;;0.63;;
7195;SDS011;3639;51.308;5.624;2022-07-06T08:52:41;0.97;;;0.70;;
7195;SDS011;3639;51.308;5.624;2022-07-06T08:55:10;1.27;;;0.90;;
7195;SDS011;3639;51.308;5.624;2022-07-06T08:57:37;1.50;;;1.00;;
7195;SDS011;3639;51.308;5.624;2022-07-06T09:00:05;0.87;;;0.83;;
7195;SDS011;3639;51.308;5.624;2022-07-06T09:02:35;1.27;;;0.63;;
7195;SDS011;3639;51.308;5.624;2022-07-06T09:05:02;0.80;;;0.80;;
7195;SDS011;3639;51.308;5.624;2022-07-06T09:07:28;0.83;;;0.67;;
7195;SDS011;3639;51.308;5.624;2022-07-06T09:09:55;1.10;;;0.73;;
7195;SDS011;3639;51.308;5.624;2022-07-06T09:12:25;0.80;;;0.70;;
7195;SDS011;3639;51.308;5.624;2022-07-06T09:14:54;1.43;;;0.60;;
7195;SDS011;3639;51.308;5.624;2022-07-06T09:17:23;1.57;;;0.80;;
7195;SDS011;3639;51.308;5.624;2022-07-06T09:19:52;0.60;;;0.60;;
7195;SDS011;3639;51.308;5.624;2022-07-06T09:22:26;1.03;;;0.70;;
7195;SDS011;3639;51.308;5.624;2022-07-06T09:30:08;1.33;;;0.80;;
7195;SDS011;3639;51.308;5.624;2022-07-06T09:32:42;0.87;;;0.80;;
7195;SDS011;3639;51.308;5.624;2022-07-06T09:35:19;1.10;;;1.00;;
7195;SDS011;3639;51.308;5.624;2022-07-06T09:37:46;1.10;;;1.00;;
7195;SDS011;3639;51.308;5.624;2022-07-06T09:40:19;0.80;;;0.60;;
7195;SDS011;3639;51.308;5.624;2022-07-06T09:42:45;1.80;;;1.17;;
7195;SDS011;3639;51.308;5.624;2022-07-06T09:45:11;1.20;;;0.83;;
7195;SDS011;3639;51.308;5.624;2022-07-06T09:47:36;0.80;;;0.70;;
7195;SDS011;3639;51.308;5.624;2022-07-06T09:50:04;0.77;;;0.63;;
7195;SDS011;3639;51.308;5.624;2022-07-06T09:52:34;0.83;;;0.70;;
7195;SDS011;3639;51.308;5.624;2022-07-06T09:55:00;0.83;;;0.50;;
7195;SDS011;3639;51.308;5.624;2022-07-06T09:57:30;0.90;;;0.80;;
7195;SDS011;3639;51.308;5.624;2022-07-06T09:59:56;0.60;;;0.60;;
7195;SDS011;3639;51.308;5.624;2022-07-06T10:02:23;2.10;;;0.60;;
7195;SDS011;3639;51.308;5.624;2022-07-06T10:04:51;0.80;;;0.70;;
7195;SDS011;3639;51.308;5.624;2022-07-06T10:07:18;0.70;;;0.70;;
7195;SDS011;3639;51.308;5.624;2022-07-06T10:09:49;0.80;;;0.80;;
7195;SDS011;3639;51.308;5.624;2022-07-06T10:12:16;0.90;;;0.77;;
7195;SDS011;3639;51.308;5.624;2022-07-06T10:14:43;1.43;;;0.83;;
7195;SDS011;3639;51.308;5.624;2022-07-06T10:17:09;1.33;;;0.80;;
7195;SDS011;3639;51.308;5.624;2022-07-06T10:19:35;0.77;;;0.67;;
7195;SDS011;3639;51.308;5.624;2022-07-06T10:22:03;0.60;;;0.60;;
7195;SDS011;3639;51.308;5.624;2022-07-06T10:24:29;0.93;;;0.90;;
7195;SDS011;3639;51.308;5.624;2022-07-06T10:26:55;0.70;;;0.70;;
7195;SDS011;3639;51.308;5.624;2022-07-06T10:29:21;1.60;;;0.70;;
7195;SDS011;3639;51.308;5.624;2022-07-06T10:31:48;0.70;;;0.70;;
7195;SDS011;3639;51.308;5.624;2022-07-06T10:34:17;1.00;;;0.90;;
7195;SDS011;3639;51.308;5.624;2022-07-06T10:36:44;0.83;;;0.80;;
7195;SDS011;3639;51.308;5.624;2022-07-06T10:39:13;1.00;;;0.90;;
7195;SDS011;3639;51.308;5.624;2022-07-06T10:41:57;1.80;;;0.83;;
7195;SDS011;3639;51.308;5.624;2022-07-06T10:44:24;0.70;;;0.70;;
7195;SDS011;3639;51.308;5.624;2022-07-06T10:46:54;0.80;;;0.80;;
7195;SDS011;3639;51.308;5.624;2022-07-06T10:49:22;1.67;;;0.90;;
7195;SDS011;3639;51.308;5.624;2022-07-06T10:51:49;1.07;;;0.97;;
7195;SDS011;3639;51.308;5.624;2022-07-06T10:54:15;1.00;;;0.90;;
7195;SDS011;3639;51.308;5.624;2022-07-06T10:56:44;0.83;;;0.77;;
7195;SDS011;3639;51.308;5.624;2022-07-06T10:59:15;0.77;;;0.73;;
7195;SDS011;3639;51.308;5.624;2022-07-06T11:02:11;1.07;;;0.97;;
7195;SDS011;3639;51.308;5.624;2022-07-06T11:04:36;1.10;;;1.00;;
7195;SDS011;3639;51.308;5.624;2022-07-06T11:07:21;2.10;;;0.87;;
7195;SDS011;3639;51.308;5.624;2022-07-06T11:09:57;0.80;;;0.60;;
7195;SDS011;3639;51.308;5.624;2022-07-06T11:12:24;1.53;;;0.90;;
7195;SDS011;3639;51.308;5.624;2022-07-06T11:14:50;0.80;;;0.73;;
7195;SDS011;3639;51.308;5.624;2022-07-06T11:17:17;1.00;;;0.80;;
7195;SDS011;3639;51.308;5.624;2022-07-06T11:22:21;1.50;;;0.70;;
7195;SDS011;3639;51.308;5.624;2022-07-06T11:24:49;1.10;;;1.00;;
7195;SDS011;3639;51.308;5.624;2022-07-06T11:27:16;1.55;;;0.90;;
7195;SDS011;3639;51.308;5.624;2022-07-06T11:29:43;1.17;;;0.90;;
7195;SDS011;3639;51.308;5.624;2022-07-06T11:32:10;1.10;;;0.80;;
7195;SDS011;3639;51.308;5.624;2022-07-06T11:34:40;1.48;;;0.90;;
7195;SDS011;3639;51.308;5.624;2022-07-06T11:37:09;1.30;;;1.05;;
7195;SDS011;3639;51.308;5.624;2022-07-06T11:39:36;1.27;;;0.90;;
7195;SDS011;3639;51.308;5.624;2022-07-06T11:42:07;1.00;;;0.85;;
7195;SDS011;3639;51.308;5.624;2022-07-06T11:44:34;0.68;;;0.68;;
7195;SDS011;3639;51.308;5.624;2022-07-06T11:47:00;1.88;;;0.80;;
7195;SDS011;3639;51.308;5.624;2022-07-06T11:49:28;0.70;;;0.70;;
7195;SDS011;3639;51.308;5.624;2022-07-06T11:51:57;0.80;;;0.60;;
7195;SDS011;3639;51.308;5.624;2022-07-06T11:54:24;1.00;;;0.80;;
7195;SDS011;3639;51.308;5.624;2022-07-06T11:56:57;1.00;;;0.80;;
7195;SDS011;3639;51.308;5.624;2022-07-06T11:59:29;0.70;;;0.70;;
7195;SDS011;3639;51.308;5.624;2022-07-06T12:02:12;1.25;;;1.13;;
7195;SDS011;3639;51.308;5.624;2022-07-06T12:04:41;2.43;;;1.60;;
7195;SDS011;3639;51.308;5.624;2022-07-06T12:07:09;0.80;;;0.80;;
7195;SDS011;3639;51.308;5.624;2022-07-06T12:09:37;0.85;;;0.73;;
7195;SDS011;3639;51.308;5.624;2022-07-06T12:12:04;0.70;;;0.70;;
7195;SDS011;3639;51.308;5.624;2022-07-06T12:14:32;3.30;;;0.85;;
7195;SDS011;3639;51.308;5.624;2022-07-06T12:17:16;0.90;;;0.75;;
7195;SDS011;3639;51.308;5.624;2022-07-06T12:19:42;2.53;;;1.00;;
7195;SDS011;3639;51.308;5.624;2022-07-06T12:22:08;1.15;;;0.75;;
7195;SDS011;3639;51.308;5.624;2022-07-06T12:24:35;0.70;;;0.70;;
7195;SDS011;3639;51.308;5.624;2022-07-06T12:27:15;1.08;;;0.80;;
7195;SDS011;3639;51.308;5.624;2022-07-06T12:29:42;0.77;;;0.77;;
7195;SDS011;3639;51.308;5.624;2022-07-06T12:32:19;0.60;;;0.60;;
7195;SDS011;3639;51.308;5.624;2022-07-06T12:34:47;0.88;;;0.73;;
7195;SDS011;3639;51.308;5.624;2022-07-06T12:37:28;1.13;;;0.90;;
7195;SDS011;3639;51.308;5.624;2022-07-06T12:39:53;1.20;;;0.70;;
7195;SDS011;3639;51.308;5.624;2022-07-06T12:42:19;0.90;;;0.80;;
7195;SDS011;3639;51.308;5.624;2022-07-06T12:44:51;1.25;;;0.77;;
7195;SDS011;3639;51.308;5.624;2022-07-06T12:47:18;0.75;;;0.75;;
7195;SDS011;3639;51.308;5.624;2022-07-06T12:49:46;0.65;;;0.65;;
7195;SDS011;3639;51.308;5.624;2022-07-06T12:52:13;1.00;;;0.90;;
7195;SDS011;3639;51.308;5.624;2022-07-06T12:54:40;0.77;;;0.77;;
7195;SDS011;3639;51.308;5.624;2022-07-06T12:59:54;0.82;;;0.70;;
7195;SDS011;3639;51.308;5.624;2022-07-06T13:04:58;1.00;;;0.88;;
7195;SDS011;3639;51.308;5.624;2022-07-06T13:07:24;0.80;;;0.80;;
7195;SDS011;3639;51.308;5.624;2022-07-06T13:09:51;1.08;;;0.98;;
7195;SDS011;3639;51.308;5.624;2022-07-06T13:12:17;0.93;;;0.68;;
7195;SDS011;3639;51.308;5.624;2022-07-06T13:14:44;2.00;;;0.90;;
7195;SDS011;3639;51.308;5.624;2022-07-06T13:17:09;0.80;;;0.80;;
7195;SDS011;3639;51.308;5.624;2022-07-06T13:19:35;1.23;;;0.90;;
7195;SDS011;3639;51.308;5.624;2022-07-06T13:22:01;1.10;;;1.00;;
7195;SDS011;3639;51.308;5.624;2022-07-06T13:24:26;2.53;;;1.00;;
7195;SDS011;3639;51.308;5.624;2022-07-06T13:26:53;1.00;;;0.90;;
7195;SDS011;3639;51.308;5.624;2022-07-06T13:29:20;0.80;;;0.80;;
7195;SDS011;3639;51.308;5.624;2022-07-06T13:31:45;0.80;;;0.70;;
7195;SDS011;3639;51.308;5.624;2022-07-06T13:34:11;1.10;;;1.00;;
7195;SDS011;3639;51.308;5.624;2022-07-06T13:36:38;0.70;;;0.70;;
7195;SDS011;3639;51.308;5.624;2022-07-06T13:39:04;0.93;;;0.93;;
7195;SDS011;3639;51.308;5.624;2022-07-06T13:41:30;0.75;;;0.75;;
7195;SDS011;3639;51.308;5.624;2022-07-06T13:43:56;1.73;;;1.05;;
7195;SDS011;3639;51.308;5.624;2022-07-06T13:46:23;1.35;;;1.17;;
7195;SDS011;3639;51.308;5.624;2022-07-06T13:48:49;0.88;;;0.77;;
7195;SDS011;3639;51.308;5.624;2022-07-06T13:51:15;0.80;;;0.80;;
7195;SDS011;3639;51.308;5.624;2022-07-06T13:53:40;0.77;;;0.77;;
7195;SDS011;3639;51.308;5.624;2022-07-06T13:56:06;0.98;;;0.73;;
7195;SDS011;3639;51.308;5.624;2022-07-06T13:58:33;1.42;;;0.80;;
7195;SDS011;3639;51.308;5.624;2022-07-06T14:00:58;1.17;;;0.82;;
7195;SDS011;3639;51.308;5.624;2022-07-06T14:03:24;0.82;;;0.73;;
7195;SDS011;3639;51.308;5.624;2022-07-06T14:05:54;0.88;;;0.73;;
7195;SDS011;3639;51.308;5.624;2022-07-06T14:08:27;1.17;;;1.08;;
7195;SDS011;3639;51.308;5.624;2022-07-06T14:10:53;0.90;;;0.80;;
7195;SDS011;3639;51.308;5.624;2022-07-06T14:13:19;1.42;;;0.90;;
7195;SDS011;3639;51.308;5.624;2022-07-06T14:15:46;0.85;;;0.80;;
7195;SDS011;3639;51.308;5.624;2022-07-06T14:18:12;1.13;;;0.90;;
7195;SDS011;3639;51.308;5.624;2022-07-06T14:20:39;1.13;;;0.90;;
7195;SDS011;3639;51.308;5.624;2022-07-06T14:23:06;1.23;;;0.90;;
7195;SDS011;3639;51.308;5.624;2022-07-06T14:25:32;1.17;;;0.80;;
7195;SDS011;3639;51.308;5.624;2022-07-06T14:27:58;1.00;;;0.90;;
7195;SDS011;3639;51.308;5.624;2022-07-06T14:30:24;0.85;;;0.75;;
7195;SDS011;3639;51.308;5.624;2022-07-06T14:32:50;1.00;;;0.93;;
7195;SDS011;3639;51.308;5.624;2022-07-06T14:35:16;1.27;;;0.70;;
7195;SDS011;3639;51.308;5.624;2022-07-06T14:37:41;0.98;;;0.70;;
7195;SDS011;3639;51.308;5.624;2022-07-06T14:40:07;1.00;;;0.80;;
7195;SDS011;3639;51.308;5.624;2022-07-06T14:42:33;0.80;;;0.80;;
7195;SDS011;3639;51.308;5.624;2022-07-06T14:45:01;1.05;;;0.80;;
7195;SDS011;3639;51.308;5.624;2022-07-06T14:47:26;0.98;;;0.63;;
7195;SDS011;3639;51.308;5.624;2022-07-06T14:49:52;1.10;;;0.80;;
7195;SDS011;3639;51.308;5.624;2022-07-06T14:52:18;0.88;;;0.80;;
7195;SDS011;3639;51.308;5.624;2022-07-06T14:54:43;1.20;;;0.85;;
7195;SDS011;3639;51.308;5.624;2022-07-06T14:57:09;0.80;;;0.80;;
7195;SDS011;3639;51.308;5.624;2022-07-06T14:59:35;0.88;;;0.80;;
7195;SDS011;3639;51.308;5.624;2022-07-06T15:02:01;1.33;;;0.70;;
7195;SDS011;3639;51.308;5.624;2022-07-06T15:04:27;0.93;;;0.75;;
7195;SDS011;3639;51.308;5.624;2022-07-06T15:06:53;1.00;;;0.82;;
7195;SDS011;3639;51.308;5.624;2022-07-06T15:09:19;2.28;;;0.90;;
7195;SDS011;3639;51.308;5.624;2022-07-06T15:11:45;1.30;;;0.90;;
7195;SDS011;3639;51.308;5.624;2022-07-06T15:14:11;1.05;;;0.80;;
7195;SDS011;3639;51.308;5.624;2022-07-06T15:16:37;0.85;;;0.70;;
7195;SDS011;3639;51.308;5.624;2022-07-06T15:19:03;0.60;;;0.60;;
7195;SDS011;3639;51.308;5.624;2022-07-06T15:21:29;0.85;;;0.85;;
7195;SDS011;3639;51.308;5.624;2022-07-06T15:23:55;0.60;;;0.60;;
7195;SDS011;3639;51.308;5.624;2022-07-06T15:26:21;2.30;;;0.80;;
7195;SDS011;3639;51.308;5.624;2022-07-06T15:28:47;1.45;;;0.73;;
7195;SDS011;3639;51.308;5.624;2022-07-06T15:31:12;1.45;;;0.70;;